Terminal Aerodrome Forecast
Issued by NWS Jackson, KY

Home | Current Version | Previous Version | Text Only | Print | Product List | Glossary On
Versions: 1 2 3 4 5 6 7 8 9 10 11 12 13 14 15 16 17
000
FTUS43 KJKL 260536
TAFLOZ
TAF
KLOZ 260536Z 2606/2706 00000KT P6SM SKC
     FM260900 00000KT 3SM BR SKC
     FM261230 23007KT P6SM SCT250
     FM261500 25009KT P6SM VCTS SCT040CB BKN100
     FM261800 28008G15KT P6SM VCTS BKN040CB OVC100
     FM270000 32005KT P6SM SCT040 BKN100
     FM270200 VRB03KT P6SM SCT250=

USA.gov is the U.S. government's official web portal to all federal, state and local government web resources and services.